createdAt,value
2019-02-11T00:00:58.068Z,57.87
2019-02-11T00:03:44.744Z,57.66
2019-02-11T00:06:25.574Z,57.94
2019-02-11T00:09:11.795Z,57.52
2019-02-11T00:11:51.594Z,57.59
2019-02-11T00:14:37.803Z,57.24
2019-02-11T00:17:18.203Z,57.35
2019-02-11T00:19:57.926Z,56.93
2019-02-11T00:22:44.116Z,56.94
2019-02-11T00:25:23.333Z,57.18
2019-02-11T00:28:09.546Z,57.42
2019-02-11T00:30:49.961Z,57.32
2019-02-11T00:33:36.443Z,57.35
2019-02-11T00:36:16.700Z,57.16
2019-02-11T00:39:25.062Z,57.20
2019-02-11T00:42:05.224Z,57.26
2019-02-11T00:44:52.475Z,57.61
2019-02-11T00:47:32.681Z,57.79
2019-02-11T00:50:12.831Z,58.08
2019-02-11T00:52:59.092Z,57.52
2019-02-11T00:55:38.760Z,57.85
2019-02-11T00:58:25.256Z,58.20
2019-02-11T01:01:11.677Z,57.41
2019-02-11T01:03:52.276Z,57.85
2019-02-11T01:06:38.836Z,59.19
2019-02-11T01:09:19.157Z,60.89
2019-02-11T01:12:05.660Z,61.61
2019-02-11T01:14:46.695Z,62.23
2019-02-11T01:17:33.182Z,62.81
2019-02-11T01:20:12.568Z,62.66
2019-02-11T01:22:52.805Z,61.61
2019-02-11T01:25:32.964Z,62.29
2019-02-11T01:28:19.164Z,62.70
2019-02-11T01:30:59.509Z,64.02
2019-02-11T01:33:45.704Z,64.38
2019-02-11T01:36:25.933Z,64.86
2019-02-11T01:39:12.380Z,66.46
2019-02-11T01:41:52.997Z,66.65
2019-02-11T01:44:39.196Z,67.19
2019-02-11T01:47:19.665Z,67.27
2019-02-11T01:50:27.946Z,67.94
2019-02-11T01:53:08.139Z,67.28
2019-02-11T01:55:54.625Z,67.59
2019-02-11T01:58:35.654Z,67.94
2019-02-11T02:01:21.867Z,67.44
2019-02-11T02:04:02.939Z,68.49
2019-02-11T02:06:49.143Z,70.08
2019-02-11T02:09:28.773Z,72.02
2019-02-11T02:12:15.223Z,74.98
2019-02-11T02:14:55.363Z,76.42
2019-02-11T02:17:41.695Z,77.24
2019-02-11T02:20:21.845Z,77.57
2019-02-11T02:23:08.060Z,78.48
2019-02-11T02:25:48.022Z,78.35
2019-02-11T02:28:34.499Z,78.34
2019-02-11T02:31:14.867Z,79.34
2019-02-11T02:34:01.339Z,77.44
2019-02-11T02:36:41.279Z,78.23
2019-02-11T02:39:27.749Z,78.44
2019-02-11T02:42:07.493Z,78.57
2019-02-11T02:44:53.976Z,77.55
2019-02-11T02:47:34.579Z,78.44
2019-02-11T02:50:20.799Z,79.01
2019-02-11T02:53:00.819Z,78.86
2019-02-11T02:55:47.322Z,78.22
2019-02-11T02:58:26.868Z,79.21
2019-02-11T03:01:13.112Z,78.84
2019-02-11T03:03:54.438Z,79.12
2019-02-11T03:06:40.912Z,79.77
2019-02-11T03:09:20.804Z,80.79
2019-02-11T03:12:06.988Z,80.83
2019-02-11T03:14:46.715Z,80.82
2019-02-11T03:17:32.916Z,80.94
2019-02-11T03:20:13.501Z,81.95
2019-02-11T03:22:59.689Z,81.47
2019-02-11T03:25:39.992Z,82.40
2019-02-11T03:28:26.440Z,83.25
2019-02-11T03:31:06.064Z,82.88
2019-02-11T03:33:52.257Z,82.67
2019-02-11T03:36:32.019Z,82.15
2019-02-11T03:38:58.322Z,82.87
2019-02-11T03:41:38.667Z,84.08
2019-02-11T03:44:25.879Z,84.57
2019-02-11T03:46:52.244Z,84.34
2019-02-11T03:49:38.457Z,83.31
2019-02-11T03:52:18.189Z,83.72
2019-02-11T03:54:44.742Z,83.46
2019-02-11T03:57:11.441Z,83.66
2019-02-11T03:59:57.672Z,83.53
2019-02-11T04:02:37.178Z,83.50
2019-02-11T04:05:24.939Z,83.61
2019-02-11T04:07:59.328Z,83.28
2019-02-11T04:10:45.817Z,82.89
2019-02-11T04:13:25.812Z,84.15
2019-02-11T04:16:12.021Z,84.29
2019-02-11T04:18:52.498Z,83.89
2019-02-11T04:21:38.719Z,84.73
2019-02-11T04:24:18.496Z,84.38
2019-02-11T04:27:04.700Z,85.03
2019-02-11T04:29:44.926Z,84.28
2019-02-11T04:32:31.152Z,84.34
2019-02-11T04:35:11.094Z,83.94
2019-02-11T04:37:51.067Z,83.31
2019-02-11T04:40:37.294Z,83.13
2019-02-11T04:43:17.428Z,81.92
2019-02-11T04:46:03.893Z,81.38
2019-02-11T04:48:45.052Z,80.82
2019-02-11T04:51:31.281Z,79.83
2019-02-11T04:54:10.846Z,79.08
2019-02-11T04:56:57.045Z,78.55
2019-02-11T04:59:37.334Z,78.92
2019-02-11T05:02:18.384Z,79.15
2019-02-11T05:04:58.410Z,79.49
2019-02-11T05:07:44.615Z,79.71
2019-02-11T05:10:24.260Z,78.94
2019-02-11T05:13:10.506Z,78.42
2019-02-11T05:15:50.257Z,78.00
2019-02-11T05:18:36.743Z,77.44
2019-02-11T05:21:16.964Z,77.39
2019-02-11T05:24:03.462Z,76.49
2019-02-11T05:26:44.222Z,76.26
2019-02-11T05:29:24.160Z,78.72
2019-02-11T05:32:10.400Z,77.16
2019-02-11T05:34:50.261Z,76.67
2019-02-11T05:37:37.387Z,77.09
2019-02-11T05:40:16.660Z,76.96
2019-02-11T05:43:02.895Z,76.99
2019-02-11T05:45:43.003Z,75.73
2019-02-11T05:48:29.301Z,77.02
2019-02-11T05:51:08.632Z,76.88
2019-02-11T05:53:55.121Z,75.77
2019-02-11T05:56:35.228Z,75.62
2019-02-11T05:59:21.468Z,74.91
2019-02-11T06:02:01.756Z,74.89
2019-02-11T06:04:41.756Z,76.18
2019-02-11T06:07:21.900Z,76.15
2019-02-11T06:10:04.239Z,76.05
2019-02-11T06:12:50.464Z,75.64
2019-02-11T06:15:29.851Z,76.40
2019-02-11T06:18:16.066Z,76.07
2019-02-11T06:20:56.239Z,76.32
2019-02-11T06:23:42.726Z,76.44
2019-02-11T06:26:22.804Z,76.96
2019-02-11T06:29:09.336Z,77.55
2019-02-11T06:31:49.216Z,78.09
2019-02-11T06:34:28.724Z,78.29
2019-02-11T06:37:14.982Z,78.99
2019-02-11T06:39:54.820Z,78.03
2019-02-11T06:42:41.517Z,77.41
2019-02-11T06:45:22.314Z,77.14
2019-02-11T06:48:09.649Z,76.37
2019-02-11T06:50:49.660Z,76.81
2019-02-11T06:53:35.933Z,77.23
2019-02-11T06:56:15.568Z,77.45
2019-02-11T07:01:57.277Z,77.03
2019-02-11T07:04:37.255Z,77.10
2019-02-11T07:07:23.544Z,76.43
2019-02-11T07:10:06.325Z,77.79
2019-02-11T07:13:12.696Z,78.46
2019-02-11T07:15:53.451Z,77.75
2019-02-11T07:18:39.687Z,76.71
2019-02-11T07:21:19.953Z,77.08
2019-02-11T07:24:06.214Z,77.26
2019-02-11T07:26:47.767Z,75.83
2019-02-11T07:29:34.188Z,75.60
2019-02-11T07:32:13.992Z,76.03
2019-02-11T07:35:00.468Z,76.40
2019-02-11T07:37:40.124Z,76.78
2019-02-11T07:40:20.174Z,76.61
2019-02-11T07:43:06.397Z,75.96
2019-02-11T07:49:06.213Z,75.38
2019-02-11T07:51:46.389Z,74.24
2019-02-11T07:54:32.861Z,73.26
2019-02-11T07:57:12.490Z,73.26
2019-02-11T07:59:58.725Z,72.26
2019-02-11T08:02:38.704Z,73.26
2019-02-11T08:05:20.024Z,73.70
2019-02-11T08:08:06.541Z,71.71
2019-02-11T08:10:47.332Z,72.47
2019-02-11T08:13:33.978Z,71.16
2019-02-11T08:16:13.594Z,70.80
2019-02-11T08:18:59.845Z,70.96
2019-02-11T08:21:39.837Z,70.89
2019-02-11T08:24:19.775Z,70.06
2019-02-11T08:27:06.009Z,70.24
2019-02-11T08:29:46.268Z,70.88
2019-02-11T08:32:32.831Z,70.62
2019-02-11T08:35:14.014Z,70.04
2019-02-11T08:38:00.508Z,70.22
2019-02-11T08:40:40.434Z,71.04
2019-02-11T08:43:26.656Z,70.67
2019-02-11T08:46:06.512Z,69.59
2019-02-11T08:48:52.984Z,69.49
2019-02-11T08:51:32.934Z,68.78
2019-02-11T08:54:19.179Z,69.20
2019-02-11T08:57:06.374Z,69.78
2019-02-11T08:59:52.999Z,68.50
2019-02-11T09:02:34.234Z,67.53
2019-02-11T09:05:20.569Z,66.58
2019-02-11T09:08:00.990Z,66.71
2019-02-11T09:10:47.358Z,65.39
2019-02-11T09:13:27.045Z,66.05
2019-02-11T09:16:13.347Z,66.17
2019-02-11T09:18:54.292Z,65.50
2019-02-11T09:21:40.505Z,65.45
2019-02-11T09:24:20.685Z,64.45
2019-02-11T09:27:00.858Z,65.83
2019-02-11T09:29:47.351Z,64.88
2019-02-11T09:32:27.164Z,64.16
2019-02-11T09:35:13.619Z,62.81
2019-02-11T09:38:00.981Z,64.44
2019-02-11T09:40:47.208Z,63.36
2019-02-11T09:43:27.443Z,62.76
2019-02-11T09:46:13.929Z,60.45
2019-02-11T09:48:56.960Z,61.42
2019-02-11T09:51:44.208Z,62.03
2019-02-11T09:54:23.763Z,61.53
2019-02-11T10:00:37.591Z,62.09
2019-02-11T10:03:16.990Z,60.80
2019-02-11T10:05:58.368Z,61.30
2019-02-11T10:08:44.808Z,62.01
2019-02-11T10:11:24.088Z,60.38
2019-02-11T10:14:10.556Z,60.46
2019-02-11T10:16:50.502Z,59.66
2019-02-11T10:19:36.797Z,59.79
2019-02-11T10:22:16.704Z,60.03
2019-02-11T10:24:56.800Z,60.02
2019-02-11T10:27:43.371Z,59.35
2019-02-11T10:30:24.279Z,59.83
2019-02-11T10:33:10.484Z,59.31
2019-02-11T10:35:51.374Z,58.64
2019-02-11T10:38:37.817Z,59.10
2019-02-11T10:41:17.506Z,58.15
2019-02-11T10:44:03.741Z,58.70
2019-02-11T10:46:43.189Z,56.87
2019-02-11T10:49:29.383Z,56.60
2019-02-11T10:52:09.249Z,59.28
2019-02-11T10:54:55.427Z,59.62
2019-02-11T10:57:36.288Z,59.39
2019-02-11T11:03:43.324Z,58.40
2019-02-11T11:06:23.090Z,58.63
2019-02-11T11:09:04.664Z,57.66
2019-02-11T11:11:46.433Z,55.95
2019-02-11T11:14:32.934Z,56.63
2019-02-11T11:17:12.629Z,57.06
2019-02-11T11:19:59.123Z,57.26
2019-02-11T11:22:39.986Z,57.23
2019-02-11T11:25:26.431Z,57.99
2019-02-11T11:28:06.600Z,57.34
2019-02-11T11:30:52.767Z,57.92
2019-02-11T11:33:32.444Z,58.00
2019-02-11T11:36:18.836Z,56.69
2019-02-11T11:38:58.624Z,55.81
2019-02-11T11:41:44.863Z,56.93
2019-02-11T11:44:24.858Z,58.21
2019-02-11T11:47:11.097Z,57.47
2019-02-11T11:49:51.327Z,57.65
2019-02-11T11:52:37.849Z,55.85
2019-02-11T11:55:18.715Z,56.16
2019-02-11T11:58:04.941Z,54.70
2019-02-11T12:00:44.617Z,54.54
2019-02-11T12:03:30.949Z,51.32
2019-02-11T12:06:10.667Z,51.68
2019-02-11T12:08:59.253Z,54.14
2019-02-11T12:11:59.180Z,54.94
2019-02-11T12:14:45.459Z,57.18
2019-02-11T12:17:25.467Z,57.24
2019-02-11T12:23:36.503Z,60.71
2019-02-11T12:26:21.538Z,65.23
2019-02-11T12:29:00.562Z,70.40
2019-02-11T12:31:46.821Z,71.40
2019-02-11T12:34:26.615Z,65.97
2019-02-11T12:37:12.858Z,63.17
2019-02-11T12:39:52.207Z,63.50
2019-02-11T12:42:38.478Z,62.34
2019-02-11T12:45:22.392Z,67.29
2019-02-11T12:48:01.979Z,65.59
2019-02-11T12:50:48.430Z,55.25
2019-02-11T12:53:27.822Z,45.93
2019-02-11T12:56:14.060Z,43.14
2019-02-11T12:58:54.327Z,43.02
2019-02-11T13:01:40.651Z,45.65
2019-02-11T13:04:20.425Z,44.08
2019-02-11T13:07:06.642Z,42.47
2019-02-11T13:09:46.864Z,43.33
2019-02-11T13:12:33.250Z,39.04
2019-02-11T13:15:33.505Z,39.60
2019-02-11T13:17:56.343Z,35.50
2019-02-11T13:20:42.584Z,39.12
2019-02-11T13:23:23.740Z,41.40
2019-02-11T13:26:03.999Z,47.37
2019-02-11T13:28:44.028Z,63.92
2019-02-11T13:31:30.466Z,69.12
2019-02-11T13:34:11.361Z,67.48
2019-02-11T13:36:51.390Z,66.08
2019-02-11T13:39:18.250Z,57.81
2019-02-11T13:41:44.780Z,50.60
2019-02-11T13:44:11.814Z,48.52
2019-02-11T13:46:38.252Z,45.25
2019-02-11T13:49:04.579Z,45.67
2019-02-11T13:51:30.936Z,47.28
2019-02-11T13:53:57.303Z,44.44
2019-02-11T13:56:23.731Z,40.91
2019-02-11T13:58:52.220Z,45.67
2019-02-11T14:01:18.304Z,49.05
2019-02-11T14:03:44.924Z,50.48
2019-02-11T14:06:11.276Z,51.51
2019-02-11T14:08:37.714Z,53.17
2019-02-11T14:11:04.030Z,53.58
2019-02-11T14:13:30.716Z,53.13
2019-02-11T14:15:57.138Z,47.35
2019-02-11T14:18:23.503Z,40.95
2019-02-11T14:20:50.594Z,37.53
2019-02-11T14:23:17.199Z,35.25
2019-02-11T14:25:47.107Z,35.91
2019-02-11T14:28:12.965Z,34.68
2019-02-11T14:30:39.298Z,34.52
2019-02-11T14:33:06.212Z,33.18
2019-02-11T14:35:32.792Z,35.04
2019-02-11T14:38:02.524Z,34.81
2019-02-11T14:40:28.820Z,32.70
2019-02-11T14:42:55.285Z,32.88
2019-02-11T14:45:21.994Z,36.93
2019-02-11T14:47:48.453Z,42.15
2019-02-11T14:50:15.226Z,45.15
2019-02-11T14:52:41.934Z,45.92
2019-02-11T14:55:09.496Z,47.64
2019-02-11T14:57:36.037Z,49.08
2019-02-11T15:00:09.718Z,49.66
2019-02-11T15:02:36.644Z,48.74
2019-02-11T15:05:03.654Z,48.82
2019-02-11T15:07:30.031Z,49.93
2019-02-11T15:09:56.596Z,51.18
2019-02-11T15:12:22.932Z,53.00
2019-02-11T15:14:49.603Z,52.48
2019-02-11T15:17:15.968Z,52.99
2019-02-11T15:19:42.357Z,53.15
2019-02-11T15:22:08.663Z,54.47
2019-02-11T15:24:34.995Z,54.51
2019-02-11T15:27:17.219Z,54.27
2019-02-11T15:32:44.600Z,55.20
2019-02-11T15:35:11.171Z,56.52
2019-02-11T15:37:37.900Z,56.80
2019-02-11T15:40:09.294Z,57.12
2019-02-11T15:42:35.906Z,57.63
2019-02-11T15:45:07.513Z,57.61
2019-02-11T15:47:34.127Z,58.08
2019-02-11T15:50:00.733Z,57.11
2019-02-11T15:52:27.041Z,56.99
2019-02-11T15:54:53.597Z,56.60
2019-02-11T15:57:19.932Z,56.47
2019-02-11T15:59:46.267Z,56.49
2019-02-11T16:02:12.906Z,55.78
2019-02-11T16:04:39.590Z,55.86
2019-02-11T16:07:06.248Z,55.63
2019-02-11T16:09:32.732Z,55.46
2019-02-11T16:11:59.033Z,55.14
2019-02-11T16:14:26.354Z,54.89
2019-02-11T16:16:52.687Z,55.93
2019-02-11T16:19:19.072Z,55.99
2019-02-11T16:21:45.375Z,56.33
2019-02-11T16:24:12.019Z,56.68
2019-02-11T16:26:38.375Z,57.11
2019-02-11T16:29:05.079Z,57.35
2019-02-11T16:31:31.396Z,58.14
2019-02-11T16:33:57.744Z,57.79
2019-02-11T16:36:24.123Z,57.85
2019-02-11T16:38:50.449Z,58.34
2019-02-11T16:41:16.739Z,59.29
2019-02-11T16:43:43.352Z,59.87
2019-02-11T16:46:09.806Z,60.69
2019-02-11T16:48:36.151Z,62.23
2019-02-11T16:51:02.453Z,63.19
2019-02-11T16:53:29.141Z,64.36
2019-02-11T16:55:55.723Z,64.66
2019-02-11T16:58:22.436Z,65.47
2019-02-11T17:00:49.016Z,66.35
2019-02-11T17:03:15.597Z,66.32
2019-02-11T17:05:42.202Z,66.25
2019-02-11T17:08:08.627Z,67.15
2019-02-11T17:10:35.237Z,67.42
2019-02-11T17:13:01.840Z,67.52
2019-02-11T17:15:28.269Z,67.37
2019-02-11T17:17:54.883Z,68.23
2019-02-11T17:20:21.188Z,68.50
2019-02-11T17:22:47.512Z,68.84
2019-02-11T17:25:14.063Z,69.15
2019-02-11T17:27:40.397Z,69.59
2019-02-11T17:30:25.709Z,69.53
2019-02-11T17:32:52.032Z,69.53
2019-02-11T17:35:18.671Z,69.46
2019-02-11T17:37:45.244Z,70.69
2019-02-11T17:40:12.787Z,70.79
2019-02-11T17:42:40.528Z,70.94
2019-02-11T17:45:17.529Z,71.80
2019-02-11T17:47:44.218Z,71.30
2019-02-11T17:50:11.140Z,71.79
2019-02-11T17:52:37.868Z,71.61
2019-02-11T17:55:08.742Z,71.75
2019-02-11T17:57:35.473Z,71.37
2019-02-11T18:00:08.068Z,70.86
2019-02-11T18:02:34.462Z,71.14
2019-02-11T18:05:00.834Z,71.25
2019-02-11T18:07:27.424Z,71.17
2019-02-11T18:09:55.045Z,71.66
2019-02-11T18:12:21.376Z,71.47
2019-02-11T18:14:48.997Z,71.36
2019-02-11T18:17:15.777Z,71.42
2019-02-11T18:19:42.556Z,70.41
2019-02-11T18:22:09.291Z,70.44
2019-02-11T18:24:36.141Z,70.20
2019-02-11T18:27:02.910Z,69.81
2019-02-11T18:29:29.269Z,69.53
2019-02-11T18:31:55.596Z,70.07
2019-02-11T18:34:22.215Z,69.81
2019-02-11T18:36:48.589Z,69.16
2019-02-11T18:39:14.941Z,69.65
2019-02-11T18:41:41.653Z,69.65
2019-02-11T18:44:08.045Z,69.33
2019-02-11T18:46:34.514Z,69.39
2019-02-11T18:49:01.301Z,69.67
2019-02-11T18:51:27.921Z,70.07
2019-02-11T18:53:54.439Z,70.03
2019-02-11T18:56:21.015Z,69.61
2019-02-11T18:58:48.639Z,69.64
2019-02-11T19:01:14.977Z,69.64
2019-02-11T19:03:41.604Z,70.13
2019-02-11T19:06:07.967Z,70.52
2019-02-11T19:08:34.617Z,69.84
2019-02-11T19:11:03.114Z,69.68
2019-02-11T19:13:30.199Z,69.91
2019-02-11T19:15:56.831Z,69.60
2019-02-11T19:18:23.474Z,69.28
2019-02-11T19:20:50.078Z,69.64
2019-02-11T19:23:16.441Z,69.77
2019-02-11T19:25:42.821Z,69.72
2019-02-11T19:28:09.185Z,69.42
2019-02-11T19:30:35.558Z,69.03
2019-02-11T19:33:02.152Z,68.69
2019-02-11T19:35:28.776Z,68.86
2019-02-11T19:37:55.343Z,68.64
2019-02-11T19:40:21.979Z,68.45
2019-02-11T19:42:48.549Z,68.52
2019-02-11T19:45:20.780Z,68.62
2019-02-11T19:47:47.452Z,67.74
2019-02-11T19:50:15.859Z,67.45
2019-02-11T19:52:42.211Z,67.18
2019-02-11T19:55:11.076Z,67.09
2019-02-11T19:57:37.411Z,66.82
2019-02-11T20:00:09.480Z,66.69
2019-02-11T20:02:35.812Z,66.52
2019-02-11T20:05:04.262Z,66.58
2019-02-11T20:07:30.779Z,66.43
2019-02-11T20:09:57.365Z,65.86
2019-02-11T20:12:24.066Z,65.95
2019-02-11T20:14:50.405Z,66.29
2019-02-11T20:17:18.682Z,66.29
2019-02-11T20:19:45.273Z,66.49
2019-02-11T20:22:11.887Z,66.67
2019-02-11T20:24:38.506Z,66.71
2019-02-11T20:27:04.874Z,67.01
2019-02-11T20:29:33.887Z,66.90
2019-02-11T20:32:00.684Z,66.86
2019-02-11T20:34:27.295Z,66.83
2019-02-11T20:36:53.751Z,66.52
2019-02-11T20:39:20.142Z,66.46
2019-02-11T20:41:46.930Z,66.50
2019-02-11T20:44:13.580Z,66.63
2019-02-11T20:46:40.188Z,66.39
2019-02-11T20:49:06.789Z,66.39
2019-02-11T20:51:33.735Z,66.23
2019-02-11T20:54:00.251Z,66.36
2019-02-11T20:56:26.649Z,66.20
2019-02-11T20:58:53.504Z,65.88
2019-02-11T21:01:20.351Z,65.87
2019-02-11T21:03:46.936Z,65.89
2019-02-11T21:06:13.322Z,65.72
2019-02-11T21:08:40.101Z,65.85
2019-02-11T21:11:06.515Z,66.02
2019-02-11T21:13:32.967Z,65.24
2019-02-11T21:15:59.576Z,65.44
2019-02-11T21:18:26.249Z,65.83
2019-02-11T21:20:52.561Z,65.60
2019-02-11T21:23:18.950Z,65.33
2019-02-11T21:25:45.529Z,65.24
2019-02-11T21:28:11.865Z,65.65
2019-02-11T21:30:38.204Z,65.64
2019-02-11T21:33:04.544Z,65.48
2019-02-11T21:35:30.949Z,65.71
2019-02-11T21:37:57.513Z,65.96
2019-02-11T21:40:24.124Z,65.54
2019-02-11T21:42:50.924Z,65.84
2019-02-11T21:45:17.709Z,66.15
2019-02-11T21:47:44.382Z,66.20
2019-02-11T21:50:26.067Z,65.96
2019-02-11T21:52:46.066Z,66.43
2019-02-11T21:55:19.295Z,66.82
2019-02-11T21:57:45.779Z,66.85
2019-02-11T22:00:16.045Z,67.33
2019-02-11T22:02:42.626Z,67.50
2019-02-11T22:05:09.309Z,67.08
2019-02-11T22:07:36.054Z,66.94
2019-02-11T22:10:06.517Z,67.29
2019-02-11T22:12:33.186Z,67.65
2019-02-11T22:14:59.495Z,68.12
2019-02-11T22:17:25.918Z,68.61
2019-02-11T22:19:52.230Z,68.04
2019-02-11T22:22:18.819Z,68.12
2019-02-11T22:24:45.218Z,68.50
2019-02-11T22:27:11.803Z,68.18
2019-02-11T22:29:38.271Z,68.00
2019-02-11T22:32:04.914Z,68.05
2019-02-11T22:34:31.254Z,68.20
2019-02-11T22:36:57.851Z,68.28
2019-02-11T22:39:24.195Z,67.86
2019-02-11T22:41:50.521Z,67.48
2019-02-11T22:44:16.851Z,67.30
2019-02-11T22:46:43.480Z,67.65
2019-02-11T22:49:09.800Z,67.47
2019-02-11T22:51:36.390Z,67.57
2019-02-11T22:54:04.004Z,67.65
2019-02-11T22:56:30.631Z,67.17
2019-02-11T22:58:57.385Z,66.84
2019-02-11T23:01:24.839Z,67.03
2019-02-11T23:03:51.584Z,67.34
2019-02-11T23:06:18.151Z,67.04
2019-02-11T23:08:44.471Z,66.59
2019-02-11T23:11:10.810Z,66.59
2019-02-11T23:13:37.140Z,65.63
2019-02-11T23:16:03.710Z,65.46
2019-02-11T23:18:30.055Z,65.59
2019-02-11T23:20:57.668Z,65.37
2019-02-11T23:23:24.030Z,64.52
2019-02-11T23:25:51.192Z,63.51
2019-02-11T23:28:18.676Z,63.34
2019-02-11T23:30:45.128Z,63.60
2019-02-11T23:33:11.455Z,63.84
2019-02-11T23:35:37.786Z,63.37
2019-02-11T23:38:04.224Z,63.39
2019-02-11T23:40:30.808Z,63.01
2019-02-11T23:42:57.396Z,62.27
2019-02-11T23:45:23.723Z,62.08
2019-02-11T23:47:50.088Z,61.48
2019-02-11T23:50:19.817Z,61.55
2019-02-11T23:52:46.141Z,61.27
2019-02-11T23:55:12.572Z,61.05
2019-02-11T23:57:39.187Z,62.29
